createdAt,value
2018-02-10T00:00:54.418Z,990.95
2018-02-10T00:01:54.409Z,990.95
2018-02-10T00:02:54.397Z,990.99
2018-02-10T00:04:15.408Z,991.01
2018-02-10T00:04:54.381Z,990.99
2018-02-10T00:05:54.373Z,991.00
2018-02-10T00:06:54.367Z,990.97
2018-02-10T00:07:54.359Z,990.99
2018-02-10T00:08:54.351Z,990.97
2018-02-10T00:10:15.354Z,990.97
2018-02-10T00:10:54.337Z,990.98
2018-02-10T00:11:54.325Z,991.00
2018-02-10T00:12:54.318Z,990.98
2018-02-10T00:13:54.313Z,991.00
2018-02-10T00:14:54.305Z,990.95
2018-02-10T00:16:15.356Z,991.01
2018-02-10T00:16:54.286Z,990.99
2018-02-10T00:17:54.282Z,990.96
2018-02-10T00:18:54.281Z,990.99
2018-02-10T00:19:54.265Z,990.97
2018-02-10T00:20:54.264Z,990.97
2018-02-10T00:22:15.258Z,990.95
2018-02-10T00:22:54.236Z,990.97
2018-02-10T00:23:54.228Z,991.00
2018-02-10T00:24:54.219Z,991.02
2018-02-10T00:25:54.247Z,991.01
2018-02-10T00:26:54.212Z,991.01
2018-02-10T00:28:15.207Z,991.02
2018-02-10T00:28:54.190Z,991.01
2018-02-10T00:29:54.190Z,991.04
2018-02-10T00:30:54.174Z,991.07
2018-02-10T00:31:54.167Z,991.09
2018-02-10T00:32:54.164Z,991.04
2018-02-10T00:34:15.162Z,991.08
2018-02-10T00:34:54.143Z,991.05
2018-02-10T00:35:54.143Z,991.09
2018-02-10T00:36:54.127Z,991.06
2018-02-10T00:37:54.119Z,991.08
2018-02-10T00:38:54.108Z,991.07
2018-02-10T00:40:15.108Z,991.08
2018-02-10T00:40:54.111Z,991.12
2018-02-10T00:41:54.090Z,991.14
2018-02-10T00:42:54.089Z,991.13
2018-02-10T00:43:54.073Z,991.19
2018-02-10T00:44:54.068Z,991.13
2018-02-10T00:46:15.062Z,991.12
2018-02-10T00:46:54.047Z,991.18
2018-02-10T00:47:54.039Z,991.17
2018-02-10T00:48:54.026Z,991.17
2018-02-10T00:49:54.021Z,991.24
2018-02-10T00:50:54.023Z,991.23
2018-02-10T00:52:15.007Z,991.22
2018-02-10T00:52:53.997Z,991.22
2018-02-10T00:53:53.991Z,991.21
2018-02-10T00:54:54.002Z,991.27
2018-02-10T00:55:53.968Z,991.21
2018-02-10T00:56:53.998Z,991.21
2018-02-10T00:58:14.966Z,991.24
2018-02-10T00:58:53.945Z,991.24
2018-02-10T00:59:53.937Z,991.28
2018-02-10T01:00:53.931Z,991.25
2018-02-10T01:01:53.922Z,991.27
2018-02-10T01:02:53.921Z,991.26
2018-02-10T01:04:14.915Z,991.27
2018-02-10T01:04:53.896Z,991.24
2018-02-10T01:05:53.904Z,991.23
2018-02-10T01:06:53.884Z,991.24
2018-02-10T01:07:53.874Z,991.25
2018-02-10T01:08:53.877Z,991.27
2018-02-10T01:10:14.866Z,991.22
2018-02-10T01:10:53.848Z,991.25
2018-02-10T01:11:53.839Z,991.23
2018-02-10T01:12:53.831Z,991.24
2018-02-10T01:13:53.828Z,991.23
2018-02-10T01:14:53.821Z,991.22
2018-02-10T01:16:14.815Z,991.24
2018-02-10T01:16:53.809Z,991.27
2018-02-10T01:17:53.796Z,991.26
2018-02-10T01:18:53.791Z,991.24
2018-02-10T01:19:53.779Z,991.23
2018-02-10T01:20:53.775Z,991.27
2018-02-10T01:22:14.770Z,991.29
2018-02-10T01:22:53.761Z,991.28
2018-02-10T01:23:53.741Z,991.28
2018-02-10T01:24:53.738Z,991.25
2018-02-10T01:25:53.725Z,991.26
2018-02-10T01:26:53.719Z,991.25
2018-02-10T01:28:14.720Z,991.27
2018-02-10T01:28:53.704Z,991.28
2018-02-10T01:29:53.697Z,991.27
2018-02-10T01:30:53.699Z,991.26
2018-02-10T01:31:53.681Z,991.27
2018-02-10T01:32:53.675Z,991.27
2018-02-10T01:34:14.668Z,991.25
2018-02-10T01:34:53.654Z,991.28
2018-02-10T01:35:53.646Z,991.27
2018-02-10T01:36:53.637Z,991.25
2018-02-10T01:37:53.627Z,991.29
2018-02-10T01:38:53.618Z,991.27
2018-02-10T01:40:14.619Z,991.27
2018-02-10T01:40:53.611Z,991.26
2018-02-10T01:41:53.600Z,991.27
2018-02-10T01:42:53.599Z,991.31
2018-02-10T01:43:53.581Z,991.28
2018-02-10T01:44:53.576Z,991.31
2018-02-10T01:46:14.577Z,991.29
2018-02-10T01:46:53.555Z,991.28
2018-02-10T01:47:53.548Z,991.29
2018-02-10T01:48:53.542Z,991.30
2018-02-10T01:49:53.535Z,991.29
2018-02-10T01:50:53.524Z,991.32
2018-02-10T01:52:14.522Z,991.31
2018-02-10T01:52:53.508Z,991.30
2018-02-10T01:53:53.510Z,991.30
2018-02-10T01:54:53.503Z,991.30
2018-02-10T01:55:53.491Z,991.28
2018-02-10T01:56:53.480Z,991.30
2018-02-10T01:58:14.483Z,991.33
2018-02-10T01:58:53.455Z,991.30
2018-02-10T01:59:53.448Z,991.34
2018-02-10T02:00:53.442Z,991.33
2018-02-10T02:01:53.433Z,991.32
2018-02-10T02:02:53.425Z,991.36
2018-02-10T02:04:14.424Z,991.34
2018-02-10T02:04:53.416Z,991.35
2018-02-10T02:05:53.405Z,991.34
2018-02-10T02:06:53.395Z,991.36
2018-02-10T02:07:53.382Z,991.37
2018-02-10T02:08:53.387Z,991.40
2018-02-10T02:10:14.378Z,991.39
2018-02-10T02:10:53.361Z,991.38
2018-02-10T02:11:53.354Z,991.39
2018-02-10T02:12:53.341Z,991.40
2018-02-10T02:13:53.335Z,991.40
2018-02-10T02:14:53.328Z,991.39
2018-02-10T02:16:14.325Z,991.45
2018-02-10T02:16:53.315Z,991.44
2018-02-10T02:17:53.307Z,991.48
2018-02-10T02:18:53.301Z,991.48
2018-02-10T02:19:53.287Z,991.44
2018-02-10T02:20:53.278Z,991.49
2018-02-10T02:22:14.280Z,991.49
2018-02-10T02:22:53.260Z,991.44
2018-02-10T02:23:53.255Z,991.44
2018-02-10T02:24:53.245Z,991.42
2018-02-10T02:25:53.240Z,991.42
2018-02-10T02:26:53.228Z,991.40
2018-02-10T02:28:14.229Z,991.41
2018-02-10T02:28:53.213Z,991.42
2018-02-10T02:29:53.209Z,991.41
2018-02-10T02:30:53.217Z,991.44
2018-02-10T02:31:53.193Z,991.39
2018-02-10T02:32:53.183Z,991.42
2018-02-10T02:34:14.184Z,991.40
2018-02-10T02:34:53.164Z,991.42
2018-02-10T02:35:53.156Z,991.41
2018-02-10T02:36:53.150Z,991.38
2018-02-10T02:37:53.145Z,991.40
2018-02-10T02:38:53.134Z,991.40
2018-02-10T02:40:14.143Z,991.41
2018-02-10T02:40:53.117Z,991.43
2018-02-10T02:41:53.115Z,991.37
2018-02-10T02:42:53.107Z,991.43
2018-02-10T02:43:53.119Z,991.42
2018-02-10T02:44:53.091Z,991.33
2018-02-10T02:46:14.091Z,991.34
2018-02-10T02:46:53.069Z,991.30
2018-02-10T02:47:53.057Z,991.29
2018-02-10T02:48:53.051Z,991.29
2018-02-10T02:49:53.057Z,991.32
2018-02-10T02:50:53.037Z,991.32
2018-02-10T02:52:14.036Z,991.28
2018-02-10T02:52:53.023Z,991.24
2018-02-10T02:53:53.015Z,991.24
2018-02-10T02:54:53.011Z,991.24
2018-02-10T02:55:52.992Z,991.23
2018-02-10T02:56:52.995Z,991.20
2018-02-10T02:58:13.991Z,991.25
2018-02-10T02:58:52.977Z,991.23
2018-02-10T02:59:52.963Z,991.25
2018-02-10T03:00:52.954Z,991.22
2018-02-10T03:01:52.962Z,991.21
2018-02-10T03:02:52.936Z,991.25
2018-02-10T03:04:13.935Z,991.25
2018-02-10T03:04:52.933Z,991.22
2018-02-10T03:05:52.932Z,991.24
2018-02-10T03:06:52.915Z,991.23
2018-02-10T03:07:52.903Z,991.22
2018-02-10T03:08:52.886Z,991.21
2018-02-10T03:10:13.889Z,991.25
2018-02-10T03:10:52.870Z,991.24
2018-02-10T03:11:52.867Z,991.26
2018-02-10T03:12:52.853Z,991.25
2018-02-10T03:13:52.848Z,991.22
2018-02-10T03:14:52.840Z,991.26
2018-02-10T03:16:13.841Z,991.24
2018-02-10T03:16:52.822Z,991.25
2018-02-10T03:17:52.815Z,991.28
2018-02-10T03:18:52.819Z,991.22
2018-02-10T03:19:52.798Z,991.22
2018-02-10T03:20:52.796Z,991.22
2018-02-10T03:22:13.795Z,991.23
2018-02-10T03:22:52.774Z,991.24
2018-02-10T03:23:52.764Z,991.24
2018-02-10T03:24:52.759Z,991.28
2018-02-10T03:25:52.749Z,991.27
2018-02-10T03:26:52.740Z,991.26
2018-02-10T03:28:13.746Z,991.27
2018-02-10T03:28:52.723Z,991.25
2018-02-10T03:29:52.721Z,991.29
2018-02-10T03:30:52.708Z,991.29
2018-02-10T03:31:52.713Z,991.33
2018-02-10T03:32:52.689Z,991.31
2018-02-10T03:34:13.689Z,991.35
2018-02-10T03:34:52.671Z,991.30
2018-02-10T03:35:52.665Z,991.28
2018-02-10T03:36:52.707Z,991.32
2018-02-10T03:37:52.655Z,991.32
2018-02-10T03:38:52.647Z,991.33
2018-02-10T03:40:13.646Z,991.30
2018-02-10T03:40:52.649Z,991.36
2018-02-10T03:41:52.620Z,991.33
2018-02-10T03:42:52.613Z,991.37
2018-02-10T03:43:52.606Z,991.34
2018-02-10T03:44:52.590Z,991.33
2018-02-10T03:46:13.595Z,991.38
2018-02-10T03:46:52.576Z,991.39
2018-02-10T03:47:52.580Z,991.40
2018-02-10T03:48:52.564Z,991.39
2018-02-10T03:49:52.552Z,991.41
2018-02-10T03:50:52.549Z,991.37
2018-02-10T03:52:13.537Z,991.34
2018-02-10T03:52:52.540Z,991.39
2018-02-10T03:53:52.524Z,991.39
2018-02-10T03:54:52.518Z,991.43
2018-02-10T03:55:52.514Z,991.40
2018-02-10T03:56:52.492Z,991.47
2018-02-10T03:58:13.523Z,991.46
2018-02-10T03:58:52.479Z,991.47
2018-02-10T03:59:52.466Z,991.46
2018-02-10T04:00:52.461Z,991.42
2018-02-10T04:01:52.495Z,991.46
2018-02-10T04:02:52.449Z,991.50
2018-02-10T04:04:13.446Z,991.48
2018-02-10T04:04:52.434Z,991.44
2018-02-10T04:05:52.425Z,991.46
2018-02-10T04:06:52.414Z,991.52
2018-02-10T04:07:52.409Z,991.48
2018-02-10T04:08:52.397Z,991.50
2018-02-10T04:10:13.398Z,991.52
2018-02-10T04:10:52.380Z,991.54
2018-02-10T04:11:52.371Z,991.54
2018-02-10T04:12:52.376Z,991.55
2018-02-10T04:13:52.360Z,991.54
2018-02-10T04:14:52.348Z,991.55
2018-02-10T04:16:13.344Z,991.59
2018-02-10T04:16:52.335Z,991.59
2018-02-10T04:17:52.327Z,991.61
2018-02-10T04:18:52.325Z,991.60
2018-02-10T04:19:52.310Z,991.58
2018-02-10T04:20:52.298Z,991.60
2018-02-10T04:22:13.304Z,991.60
2018-02-10T04:22:52.282Z,991.62
2018-02-10T04:23:52.278Z,991.62
2018-02-10T04:24:52.265Z,991.65
2018-02-10T04:25:52.280Z,991.63
2018-02-10T04:26:52.251Z,991.67
2018-02-10T04:28:13.262Z,991.66
2018-02-10T04:28:52.239Z,991.71
2018-02-10T04:29:52.233Z,991.70
2018-02-10T04:30:52.232Z,991.71
2018-02-10T04:31:52.217Z,991.72
2018-02-10T04:32:52.234Z,991.71
2018-02-10T04:34:13.210Z,991.74
2018-02-10T04:34:52.192Z,991.74
2018-02-10T04:35:52.177Z,991.72
2018-02-10T04:36:52.171Z,991.74
2018-02-10T04:37:52.163Z,991.72
2018-02-10T04:38:52.155Z,991.74
2018-02-10T04:40:13.159Z,991.69
2018-02-10T04:40:52.150Z,991.68
2018-02-10T04:41:52.136Z,991.71
2018-02-10T04:42:52.130Z,991.71
2018-02-10T04:43:52.121Z,991.70
2018-02-10T04:44:52.116Z,991.74
2018-02-10T04:46:13.112Z,991.71
2018-02-10T04:46:52.095Z,991.72
2018-02-10T04:47:52.092Z,991.73
2018-02-10T04:48:52.078Z,991.73
2018-02-10T04:49:52.069Z,991.69
2018-02-10T04:50:52.078Z,991.74
2018-02-10T04:52:13.059Z,991.73
2018-02-10T04:52:52.063Z,991.77
2018-02-10T04:53:52.046Z,991.71
2018-02-10T04:54:52.036Z,991.79
2018-02-10T04:55:52.026Z,991.73
2018-02-10T04:56:52.020Z,991.76
2018-02-10T04:58:13.021Z,991.73
2018-02-10T04:58:52.002Z,991.72
2018-02-10T04:59:51.992Z,991.72
2018-02-10T05:00:51.985Z,991.66
2018-02-10T05:01:51.974Z,991.69
2018-02-10T05:02:51.970Z,991.68
2018-02-10T05:04:12.967Z,991.67
2018-02-10T05:04:51.954Z,991.67
2018-02-10T05:05:51.947Z,991.63
2018-02-10T05:06:51.945Z,991.68
2018-02-10T05:07:51.931Z,991.65
2018-02-10T05:08:51.924Z,991.63
2018-02-10T05:10:12.926Z,991.64
2018-02-10T05:10:51.904Z,991.61
2018-02-10T05:11:51.898Z,991.66
2018-02-10T05:12:51.888Z,991.64
2018-02-10T05:13:51.887Z,991.69
2018-02-10T05:14:51.873Z,991.64
2018-02-10T05:16:12.870Z,991.72
2018-02-10T05:16:51.865Z,991.68
2018-02-10T05:17:51.864Z,991.71
2018-02-10T05:18:51.847Z,991.72
2018-02-10T05:19:51.846Z,991.68
2018-02-10T05:20:51.829Z,991.67
2018-02-10T05:22:12.827Z,991.69
2018-02-10T05:22:51.809Z,991.67
2018-02-10T05:23:51.803Z,991.68
2018-02-10T05:24:51.796Z,991.69
2018-02-10T05:25:51.786Z,991.67
2018-02-10T05:26:51.782Z,991.65
2018-02-10T05:28:12.776Z,991.70
2018-02-10T05:28:51.766Z,991.68
2018-02-10T05:29:51.764Z,991.68
2018-02-10T05:30:51.762Z,991.69
2018-02-10T05:31:51.748Z,991.68
2018-02-10T05:32:51.744Z,991.70
2018-02-10T05:34:12.734Z,991.72
2018-02-10T05:34:51.734Z,991.77
2018-02-10T05:35:51.717Z,991.76
2018-02-10T05:36:51.700Z,991.78
2018-02-10T05:37:51.693Z,991.81
2018-02-10T05:38:51.687Z,991.81
2018-02-10T05:40:12.682Z,991.79
2018-02-10T05:40:51.672Z,991.79
2018-02-10T05:41:51.662Z,991.79
2018-02-10T05:42:51.662Z,991.80
2018-02-10T05:43:51.649Z,991.82
2018-02-10T05:44:51.642Z,991.84
2018-02-10T05:46:12.638Z,991.84
2018-02-10T05:46:51.626Z,991.83
2018-02-10T05:47:51.650Z,991.83
2018-02-10T05:48:51.604Z,991.84
2018-02-10T05:49:51.598Z,991.87
2018-02-10T05:50:51.665Z,991.87
2018-02-10T05:52:12.587Z,991.86
2018-02-10T05:52:51.574Z,991.88
2018-02-10T05:53:51.574Z,991.88
2018-02-10T05:54:51.563Z,991.86
2018-02-10T05:55:51.559Z,991.92
2018-02-10T05:56:51.547Z,991.94
2018-02-10T05:58:12.544Z,991.88
2018-02-10T05:58:51.535Z,991.92
2018-02-10T05:59:51.517Z,991.92
2018-02-10T06:00:51.514Z,991.90
2018-02-10T06:01:51.503Z,991.91
2018-02-10T06:02:51.497Z,991.93
2018-02-10T06:04:12.494Z,991.91
2018-02-10T06:04:51.485Z,991.94
2018-02-10T06:05:51.479Z,991.89
2018-02-10T06:06:51.473Z,991.89
2018-02-10T06:07:51.465Z,991.87
2018-02-10T06:08:51.448Z,991.91
2018-02-10T06:10:12.454Z,991.94
2018-02-10T06:10:51.434Z,991.97
2018-02-10T06:11:51.424Z,991.97
2018-02-10T06:12:51.418Z,991.97
2018-02-10T06:13:51.409Z,992.00
2018-02-10T06:14:51.405Z,992.02
2018-02-10T06:16:12.402Z,992.05
2018-02-10T06:16:51.383Z,992.01
2018-02-10T06:17:51.377Z,992.03
2018-02-10T06:18:51.379Z,992.06
2018-02-10T06:19:51.361Z,992.07
2018-02-10T06:20:51.369Z,992.06
2018-02-10T06:22:12.369Z,992.05
2018-02-10T06:22:51.346Z,992.10
2018-02-10T06:23:51.337Z,992.09
2018-02-10T06:24:51.323Z,992.09
2018-02-10T06:25:51.312Z,992.10
2018-02-10T06:26:51.309Z,992.13
2018-02-10T06:28:12.308Z,992.16
2018-02-10T06:28:51.293Z,992.13
2018-02-10T06:29:51.284Z,992.11
2018-02-10T06:30:51.280Z,992.12
2018-02-10T06:31:51.274Z,992.16
2018-02-10T06:32:51.270Z,992.11
2018-02-10T06:34:12.266Z,992.10
2018-02-10T06:34:51.254Z,992.12
2018-02-10T06:35:51.239Z,992.14
2018-02-10T06:36:51.242Z,992.14
2018-02-10T06:37:51.227Z,992.15
2018-02-10T06:38:51.213Z,992.11
2018-02-10T06:40:12.212Z,992.11
2018-02-10T06:40:51.194Z,992.14
2018-02-10T06:41:51.193Z,992.18
2018-02-10T06:42:51.182Z,992.18
2018-02-10T06:43:51.174Z,992.16
2018-02-10T06:44:51.167Z,992.14
2018-02-10T06:46:12.168Z,992.18
2018-02-10T06:46:51.153Z,992.19
2018-02-10T06:47:51.146Z,992.20
2018-02-10T06:48:51.141Z,992.21
2018-02-10T06:49:51.126Z,992.22
2018-02-10T06:50:51.120Z,992.19
2018-02-10T06:52:12.117Z,992.18
2018-02-10T06:52:51.103Z,992.19
2018-02-10T06:53:51.091Z,992.22
2018-02-10T06:54:51.089Z,992.23
2018-02-10T06:55:51.086Z,992.21
2018-02-10T06:56:51.079Z,992.23
2018-02-10T06:58:12.082Z,992.28
2018-02-10T06:58:51.061Z,992.25
2018-02-10T06:59:51.050Z,992.26
2018-02-10T07:00:51.044Z,992.24
2018-02-10T07:01:51.034Z,992.20
2018-02-10T07:02:51.056Z,992.23
2018-02-10T07:04:12.033Z,992.24
2018-02-10T07:04:51.042Z,992.23
2018-02-10T07:05:51.004Z,992.27
2018-02-10T07:06:50.994Z,992.25
2018-02-10T07:07:50.986Z,992.28
2018-02-10T07:08:51.004Z,992.27
2018-02-10T07:10:11.975Z,992.26
2018-02-10T07:10:50.966Z,992.30
2018-02-10T07:11:50.957Z,992.29
2018-02-10T07:12:51.000Z,992.31
2018-02-10T07:13:50.936Z,992.32
2018-02-10T07:14:50.935Z,992.33
2018-02-10T07:16:11.928Z,992.38
2018-02-10T07:16:50.911Z,992.36
2018-02-10T07:17:50.909Z,992.39
2018-02-10T07:18:50.902Z,992.41
2018-02-10T07:19:50.888Z,992.43
2018-02-10T07:20:50.882Z,992.40
2018-02-10T07:22:11.880Z,992.42
2018-02-10T07:22:50.867Z,992.41
2018-02-10T07:23:50.863Z,992.41
2018-02-10T07:24:50.853Z,992.45
2018-02-10T07:25:50.897Z,992.43
2018-02-10T07:26:50.837Z,992.42
2018-02-10T07:28:11.837Z,992.46
2018-02-10T07:28:50.824Z,992.46
2018-02-10T07:29:50.811Z,992.40
2018-02-10T07:30:50.805Z,992.44
2018-02-10T07:31:50.794Z,992.42
2018-02-10T07:32:50.805Z,992.44
2018-02-10T07:34:11.786Z,992.51
2018-02-10T07:34:50.780Z,992.47
2018-02-10T07:35:50.771Z,992.49
2018-02-10T07:36:50.755Z,992.50
2018-02-10T07:37:50.759Z,992.54
2018-02-10T07:38:50.741Z,992.55
2018-02-10T07:40:11.744Z,992.56
2018-02-10T07:40:50.728Z,992.56
2018-02-10T07:41:50.715Z,992.59
2018-02-10T07:42:50.710Z,992.62
2018-02-10T07:43:50.716Z,992.66
2018-02-10T07:44:50.696Z,992.66
2018-02-10T07:46:11.735Z,992.67
2018-02-10T07:46:50.678Z,992.64
2018-02-10T07:47:50.673Z,992.68
2018-02-10T07:48:50.668Z,992.63
2018-02-10T07:49:50.659Z,992.63
2018-02-10T07:50:50.644Z,992.63
2018-02-10T07:52:11.648Z,992.60
2018-02-10T07:52:50.643Z,992.56
2018-02-10T07:53:50.622Z,992.54
2018-02-10T07:54:50.617Z,992.52
2018-02-10T07:55:50.607Z,992.55
2018-02-10T07:56:50.604Z,992.59
2018-02-10T07:58:11.599Z,992.55
2018-02-10T07:58:50.585Z,992.54
2018-02-10T07:59:50.579Z,992.57
2018-02-10T08:00:50.572Z,992.55
2018-02-10T08:01:50.560Z,992.59
2018-02-10T08:02:50.559Z,992.61
2018-02-10T08:04:11.556Z,992.61
2018-02-10T08:04:50.533Z,992.61
2018-02-10T08:05:50.528Z,992.63
2018-02-10T08:06:50.518Z,992.70
2018-02-10T08:07:50.510Z,992.69
2018-02-10T08:08:50.516Z,992.70
2018-02-10T08:10:11.501Z,992.73
2018-02-10T08:10:50.496Z,992.72
2018-02-10T08:11:50.492Z,992.77
2018-02-10T08:12:50.475Z,992.83
2018-02-10T08:13:50.469Z,992.79
2018-02-10T08:14:50.460Z,992.83
2018-02-10T08:16:11.463Z,992.79
2018-02-10T08:16:50.443Z,992.80
2018-02-10T08:17:50.446Z,992.81
2018-02-10T08:18:50.437Z,992.83
2018-02-10T08:19:50.423Z,992.83
2018-02-10T08:20:50.412Z,992.87
2018-02-10T08:22:11.410Z,992.82
2018-02-10T08:22:50.397Z,992.84
2018-02-10T08:23:50.390Z,992.83
2018-02-10T08:24:50.380Z,992.87
2018-02-10T08:25:50.376Z,992.88
2018-02-10T08:26:50.365Z,992.91
2018-02-10T08:28:11.369Z,992.90
2018-02-10T08:28:50.349Z,992.94
2018-02-10T08:29:50.340Z,992.93
2018-02-10T08:30:50.332Z,992.92
2018-02-10T08:31:50.397Z,992.96
2018-02-10T08:32:50.320Z,992.95
2018-02-10T08:34:11.313Z,992.94
2018-02-10T08:34:50.307Z,992.96
2018-02-10T08:35:50.307Z,992.96
2018-02-10T08:36:50.295Z,993.09
2018-02-10T08:37:50.279Z,993.05
2018-02-10T08:38:50.271Z,993.04
2018-02-10T08:40:11.269Z,993.05
2018-02-10T08:40:50.254Z,993.08
2018-02-10T08:41:50.246Z,993.07
2018-02-10T08:42:50.240Z,993.06
2018-02-10T08:43:50.234Z,993.05
2018-02-10T08:44:50.224Z,993.06
2018-02-10T08:46:11.223Z,993.08
2018-02-10T08:46:50.209Z,993.05
2018-02-10T08:47:50.199Z,993.07
2018-02-10T08:48:50.197Z,993.07
2018-02-10T08:49:50.190Z,993.07
2018-02-10T08:50:50.183Z,993.06
2018-02-10T08:52:11.181Z,993.10
2018-02-10T08:52:50.172Z,993.09
2018-02-10T08:53:50.152Z,993.06
2018-02-10T08:54:50.146Z,993.11
2018-02-10T08:55:50.144Z,993.04
2018-02-10T08:56:50.131Z,993.13
2018-02-10T08:58:11.133Z,993.12
2018-02-10T08:58:50.125Z,993.14
2018-02-10T08:59:50.110Z,993.15
2018-02-10T09:00:50.182Z,993.16
2018-02-10T09:01:50.091Z,993.15
2018-02-10T09:02:50.099Z,993.17
2018-02-10T09:04:11.082Z,993.19
2018-02-10T09:04:50.067Z,993.17
2018-02-10T09:05:50.275Z,993.18
2018-02-10T09:06:50.054Z,993.18
2018-02-10T09:07:50.041Z,993.19
2018-02-10T09:08:50.034Z,993.18
2018-02-10T09:10:11.034Z,993.17
2018-02-10T09:10:50.020Z,993.14
2018-02-10T09:11:50.011Z,993.15
2018-02-10T09:12:50.006Z,993.14
2018-02-10T09:13:50.005Z,993.13
2018-02-10T09:14:50.003Z,993.11
2018-02-10T09:16:11.002Z,993.13
2018-02-10T09:16:50.787Z,993.11
2018-02-10T09:17:49.976Z,993.13
2018-02-10T09:18:49.953Z,993.14
2018-02-10T09:19:49.960Z,993.08
2018-02-10T09:20:49.947Z,993.10
2018-02-10T09:22:10.933Z,993.09
2018-02-10T09:22:49.926Z,993.12
2018-02-10T09:23:49.913Z,993.17
2018-02-10T09:24:49.913Z,993.15
2018-02-10T09:25:49.917Z,993.13
2018-02-10T09:26:49.899Z,993.13
2018-02-10T09:28:10.887Z,993.11
2018-02-10T09:28:49.892Z,993.17
2018-02-10T09:29:49.880Z,993.14
2018-02-10T09:30:49.857Z,993.15
2018-02-10T09:31:49.851Z,993.13
2018-02-10T09:32:49.848Z,993.17
2018-02-10T09:34:10.844Z,993.13
2018-02-10T09:34:49.848Z,993.17
2018-02-10T09:35:49.819Z,993.13
2018-02-10T09:36:49.816Z,993.16
2018-02-10T09:37:49.808Z,993.13
2018-02-10T09:38:49.816Z,993.20
2018-02-10T09:40:10.821Z,993.21
2018-02-10T09:40:49.795Z,993.15
2018-02-10T09:41:49.773Z,993.20
2018-02-10T09:42:49.761Z,993.22
2018-02-10T09:43:49.753Z,993.26
2018-02-10T09:44:49.754Z,993.27
2018-02-10T09:46:10.754Z,993.28
2018-02-10T09:46:49.741Z,993.28
2018-02-10T09:47:49.734Z,993.27
2018-02-10T09:48:49.716Z,993.26
2018-02-10T09:49:49.710Z,993.26
2018-02-10T09:50:49.702Z,993.30
2018-02-10T09:52:10.710Z,993.30
2018-02-10T09:52:49.694Z,993.27
2018-02-10T09:53:49.680Z,993.28
2018-02-10T09:54:49.676Z,993.25
2018-02-10T09:55:49.661Z,993.25
2018-02-10T09:56:49.653Z,993.24
2018-02-10T09:58:10.653Z,993.23
2018-02-10T09:58:49.643Z,993.20
2018-02-10T09:59:49.635Z,993.21
2018-02-10T10:00:49.633Z,993.22
2018-02-10T10:01:49.628Z,993.19
2018-02-10T10:02:49.626Z,993.22
2018-02-10T10:04:10.616Z,993.19
2018-02-10T10:04:49.592Z,993.23
2018-02-10T10:05:49.603Z,993.22
2018-02-10T10:06:49.585Z,993.19
2018-02-10T10:07:49.578Z,993.18
2018-02-10T10:08:49.582Z,993.21
2018-02-10T10:10:10.566Z,993.19
2018-02-10T10:10:49.545Z,993.21
2018-02-10T10:11:49.537Z,993.19
2018-02-10T10:12:49.538Z,993.19
2018-02-10T10:13:49.529Z,993.24
2018-02-10T10:14:49.517Z,993.24
2018-02-10T10:16:10.519Z,993.25
2018-02-10T10:16:49.507Z,993.28
2018-02-10T10:17:49.495Z,993.27
2018-02-10T10:18:49.491Z,993.29
2018-02-10T10:19:49.484Z,993.28
2018-02-10T10:20:49.470Z,993.26
2018-02-10T10:22:10.469Z,993.27
2018-02-10T10:22:49.479Z,993.29
2018-02-10T10:23:49.730Z,993.30
2018-02-10T10:24:49.437Z,993.27
2018-02-10T10:25:49.433Z,993.26
2018-02-10T10:26:49.602Z,993.28
2018-02-10T10:28:10.424Z,993.29
2018-02-10T10:28:49.412Z,993.29
2018-02-10T10:29:49.406Z,993.30
2018-02-10T10:30:49.402Z,993.26
2018-02-10T10:31:49.433Z,993.27
2018-02-10T10:32:49.375Z,993.28
2018-02-10T10:34:10.378Z,993.30
2018-02-10T10:34:49.359Z,993.28
2018-02-10T10:35:49.351Z,993.32
2018-02-10T10:36:49.414Z,993.32
2018-02-10T10:37:49.335Z,993.33
2018-02-10T10:38:49.328Z,993.32
2018-02-10T10:40:10.324Z,993.31
2018-02-10T10:40:49.701Z,993.30
2018-02-10T10:41:49.312Z,993.31
2018-02-10T10:42:49.314Z,993.30
2018-02-10T10:43:49.662Z,993.26
2018-02-10T10:44:49.283Z,993.26
2018-02-10T10:46:10.293Z,993.32
2018-02-10T10:46:49.392Z,993.30
2018-02-10T10:47:49.257Z,993.27
2018-02-10T10:48:49.256Z,993.29
2018-02-10T10:49:49.273Z,993.29
2018-02-10T10:50:49.241Z,993.29
2018-02-10T10:52:10.282Z,993.30
2018-02-10T10:52:49.224Z,993.29
2018-02-10T10:53:49.213Z,993.28
2018-02-10T10:54:49.208Z,993.25
2018-02-10T10:55:49.218Z,993.27
2018-02-10T10:56:49.194Z,993.25
2018-02-10T10:58:10.187Z,993.23
2018-02-10T10:58:49.171Z,993.25
2018-02-10T10:59:49.164Z,993.23
2018-02-10T11:00:49.223Z,993.21
2018-02-10T11:01:49.157Z,993.21
2018-02-10T11:02:49.147Z,993.18
2018-02-10T11:04:10.201Z,993.16
2018-02-10T11:04:49.154Z,993.15
2018-02-10T11:05:49.150Z,993.11
2018-02-10T11:06:49.119Z,993.11
2018-02-10T11:07:49.106Z,993.10
2018-02-10T11:08:49.098Z,993.12
2018-02-10T11:10:10.099Z,993.09
2018-02-10T11:10:49.090Z,993.10
2018-02-10T11:11:49.082Z,993.05
2018-02-10T11:12:49.069Z,993.15
2018-02-10T11:13:49.060Z,993.10
2018-02-10T11:14:49.061Z,993.04
2018-02-10T11:16:10.056Z,993.06
2018-02-10T11:16:49.035Z,993.01
2018-02-10T11:17:49.039Z,993.00
2018-02-10T11:18:49.034Z,992.99
2018-02-10T11:19:49.041Z,992.98
2018-02-10T11:20:49.008Z,993.04
2018-02-10T11:22:10.006Z,993.00
2018-02-10T11:22:49.007Z,993.06
2018-02-10T11:23:48.984Z,993.01
2018-02-10T11:24:48.979Z,993.08
2018-02-10T11:25:48.971Z,993.05
2018-02-10T11:26:48.955Z,993.04
2018-02-10T11:28:09.959Z,993.02
2018-02-10T11:28:48.953Z,993.00
2018-02-10T11:29:48.937Z,992.99
2018-02-10T11:30:48.983Z,993.01
2018-02-10T11:31:48.928Z,993.04
2018-02-10T11:32:48.927Z,993.03
2018-02-10T11:34:09.911Z,993.03
2018-02-10T11:34:48.903Z,993.06
2018-02-10T11:35:48.945Z,993.07
2018-02-10T11:36:48.886Z,993.09
2018-02-10T11:37:48.875Z,993.04
2018-02-10T11:38:48.886Z,993.12
2018-02-10T11:40:09.864Z,993.07
2018-02-10T11:40:48.858Z,993.08
2018-02-10T11:41:48.846Z,993.15
2018-02-10T11:42:48.839Z,993.15
2018-02-10T11:43:48.835Z,993.17
2018-02-10T11:44:48.823Z,993.14
2018-02-10T11:46:09.831Z,993.16
2018-02-10T11:46:48.818Z,993.17
2018-02-10T11:47:48.808Z,993.16
2018-02-10T11:48:48.788Z,993.16
2018-02-10T11:49:48.785Z,993.12
2018-02-10T11:50:48.771Z,993.15
2018-02-10T11:52:09.769Z,993.18
2018-02-10T11:52:48.761Z,993.15
2018-02-10T11:53:48.788Z,993.17
2018-02-10T11:54:48.752Z,993.15
2018-02-10T11:55:48.740Z,993.16
2018-02-10T11:56:48.738Z,993.16
2018-02-10T11:58:09.737Z,993.23
2018-02-10T11:58:48.720Z,993.16
2018-02-10T11:59:48.752Z,993.18
2018-02-10T12:00:48.768Z,993.17
2018-02-10T12:01:48.754Z,993.16
2018-02-10T12:02:48.682Z,993.15
2018-02-10T12:04:09.673Z,993.13
2018-02-10T12:04:49.671Z,993.14
2018-02-10T12:05:48.749Z,993.13
2018-02-10T12:06:49.173Z,993.14
2018-02-10T12:07:49.170Z,993.12
2018-02-10T12:08:49.178Z,993.13
2018-02-10T12:10:09.632Z,993.12
2018-02-10T12:10:48.683Z,993.12
2018-02-10T12:11:48.779Z,993.09
2018-02-10T12:12:48.658Z,993.07
2018-02-10T12:13:48.764Z,993.06
2018-02-10T12:14:48.804Z,993.04
2018-02-10T12:16:09.594Z,993.04
2018-02-10T12:16:48.572Z,993.03
2018-02-10T12:17:48.579Z,992.98
2018-02-10T12:18:48.557Z,993.01
2018-02-10T12:19:48.554Z,992.98
2018-02-10T12:20:48.550Z,993.00
2018-02-10T12:22:09.565Z,992.95
2018-02-10T12:22:48.532Z,992.93
2018-02-10T12:23:48.532Z,992.92
2018-02-10T12:24:48.519Z,992.94
2018-02-10T12:25:48.517Z,992.92
2018-02-10T12:26:48.508Z,992.97
2018-02-10T12:28:09.498Z,992.91
2018-02-10T12:28:48.484Z,992.89